Time;durP1;ratioP1;P1;durP2;ratioP2;P2;SDS_P1;SDS_P2;PMS_P1;PMS_P2;Temp;Humidity;BMP_temperature;BMP_pressure;BME280_temperature;BME280_humidity;BME280_pressure;Samples;Min_cycle;Max_cycle;Signal;HPM_P1;HPM_P2
2021/12/19 00:01:27;;;;;;;10.07;5.30;;;10.00;82.50;;;;;;5075050;28;20086;-71
2021/12/19 00:04:16;;;;;;;9.05;4.72;;;10.00;82.50;;;;;;5075664;28;20032;-70
2021/12/19 00:09:27;;;;;;;8.85;4.15;;;9.90;82.40;;;;;;5074623;28;20040;-70
2021/12/19 00:11:53;;;;;;;8.75;4.32;;;9.90;82.50;;;;;;5075179;28;20036;-70
2021/12/19 00:14:20;;;;;;;9.23;4.22;;;9.80;82.50;;;;;;5074812;28;20445;-70
2021/12/19 00:16:46;;;;;;;8.15;4.68;;;9.80;82.40;;;;;;5074982;28;20048;-71
2021/12/19 00:19:12;;;;;;;8.18;3.92;;;9.80;82.50;;;;;;5073925;28;20028;-70
2021/12/19 00:21:40;;;;;;;11.23;5.00;;;9.80;82.60;;;;;;5057368;28;20468;-70
2021/12/19 00:24:07;;;;;;;10.85;4.97;;;9.70;82.40;;;;;;5075466;28;20365;-70
2021/12/19 00:26:33;;;;;;;8.85;4.32;;;9.70;82.30;;;;;;5074179;28;20482;-71
2021/12/19 00:29:00;;;;;;;8.43;3.75;;;9.70;82.30;;;;;;5075067;28;20119;-71
2021/12/19 00:31:27;;;;;;;7.93;3.90;;;9.70;82.30;;;;;;5074493;28;20040;-70
2021/12/19 00:33:53;;;;;;;9.13;4.78;;;9.70;82.30;;;;;;5075301;28;20028;-70
2021/12/19 00:36:18;;;;;;;8.68;4.90;;;9.70;82.30;;;;;;5074023;28;20421;-71
2021/12/19 00:38:45;;;;;;;9.07;4.55;;;9.60;82.30;;;;;;5074815;28;20031;-71
2021/12/19 00:41:11;;;;;;;9.05;4.90;;;9.60;82.30;;;;;;5074852;28;20119;-70
2021/12/19 00:43:53;;;;;;;9.02;4.35;;;9.60;82.40;;;;;;5074032;28;20108;-71
2021/12/19 00:46:19;;;;;;;9.32;4.20;;;9.60;82.40;;;;;;5074990;28;20506;-70
2021/12/19 00:48:50;;;;;;;8.10;3.70;;;9.60;82.50;;;;;;5074781;28;20037;-70
2021/12/19 00:51:19;;;;;;;7.65;4.05;;;9.50;82.30;;;;;;5074888;28;20067;-70
2021/12/19 00:53:46;;;;;;;9.95;4.50;;;9.50;82.30;;;;;;5075393;28;20036;-70
2021/12/19 00:56:12;;;;;;;9.35;3.88;;;9.50;82.30;;;;;;5073345;28;20028;-70
2021/12/19 00:58:38;;;;;;;8.02;4.22;;;9.50;82.30;;;;;;5073833;28;20113;-71
2021/12/19 01:01:06;;;;;;;8.10;4.07;;;9.50;82.30;;;;;;5056896;28;20059;-71
2021/12/19 01:03:32;;;;;;;10.82;4.90;;;9.50;82.30;;;;;;5073802;28;20020;-70
2021/12/19 01:05:58;;;;;;;9.48;4.05;;;9.50;82.20;;;;;;5056923;28;20476;-70
2021/12/19 01:08:24;;;;;;;10.10;4.65;;;9.50;82.30;;;;;;5074640;28;20119;-70
2021/12/19 01:10:50;;;;;;;8.85;4.35;;;9.50;82.30;;;;;;5073649;28;20096;-70
2021/12/19 01:13:17;;;;;;;7.47;3.85;;;9.50;82.20;;;;;;5057015;28;20337;-70
2021/12/19 01:15:45;;;;;;;8.68;4.40;;;9.50;82.20;;;;;;5074143;28;20102;-70
2021/12/19 01:18:10;;;;;;;8.45;4.35;;;9.50;82.20;;;;;;5057250;28;20037;-70
2021/12/19 01:20:39;;;;;;;9.35;4.10;;;9.50;82.20;;;;;;5073945;28;20023;-70
2021/12/19 01:23:07;;;;;;;9.18;4.40;;;9.50;82.20;;;;;;5073867;28;20028;-70
2021/12/19 01:25:32;;;;;;;9.18;4.40;;;9.50;82.30;;;;;;5072721;28;20127;-70
2021/12/19 01:27:58;;;;;;;9.25;4.30;;;9.50;82.30;;;;;;5073749;28;20405;-70
2021/12/19 01:30:24;;;;;;;9.25;4.38;;;9.50;82.30;;;;;;5055898;28;20465;-70
2021/12/19 01:32:50;;;;;;;8.90;4.07;;;9.50;82.30;;;;;;5074286;28;20130;-70
2021/12/19 01:35:19;;;;;;;9.93;4.63;;;9.50;82.20;;;;;;5072731;28;20020;-70
2021/12/19 01:37:46;;;;;;;8.75;4.13;;;9.50;82.30;;;;;;5073349;28;20020;-70
2021/12/19 01:40:14;;;;;;;8.18;4.20;;;9.50;82.30;;;;;;5074054;28;20024;-70
2021/12/19 01:42:42;;;;;;;8.30;3.85;;;9.50;82.40;;;;;;5072969;28;20020;-70
2021/12/19 01:45:12;;;;;;;8.30;3.97;;;9.50;82.30;;;;;;5072934;28;20058;-70
2021/12/19 01:47:39;;;;;;;8.68;3.78;;;9.50;82.40;;;;;;5073106;28;20047;-70
2021/12/19 01:50:07;;;;;;;8.95;4.15;;;9.50;82.40;;;;;;5074140;28;20115;-70
2021/12/19 01:52:33;;;;;;;9.00;3.85;;;9.50;82.40;;;;;;5073622;28;20055;-70
2021/12/19 01:54:59;;;;;;;8.63;4.10;;;9.50;82.40;;;;;;5072360;28;20032;-70
2021/12/19 01:57:26;;;;;;;10.80;5.45;;;9.50;82.50;;;;;;5072999;28;20033;-70
2021/12/19 01:59:52;;;;;;;10.32;5.05;;;9.50;82.70;;;;;;5072053;28;20111;-70
2021/12/19 02:02:18;;;;;;;10.73;4.63;;;9.50;82.70;;;;;;5073615;28;20129;-70
2021/12/19 02:04:44;;;;;;;11.40;5.38;;;9.50;82.70;;;;;;5067281;28;20375;-70
2021/12/19 02:07:11;;;;;;;11.38;5.28;;;9.50;82.80;;;;;;5071183;28;20173;-70
2021/12/19 02:09:37;;;;;;;9.82;5.28;;;9.50;82.80;;;;;;5072904;28;20039;-71
2021/12/19 02:12:03;;;;;;;12.38;6.55;;;9.50;82.80;;;;;;5072514;28;20032;-70
2021/12/19 02:14:30;;;;;;;13.23;5.97;;;9.60;82.80;;;;;;5073222;28;20086;-71
2021/12/19 02:16:56;;;;;;;11.40;5.93;;;9.50;82.80;;;;;;5073512;28;20449;-71
2021/12/19 02:19:24;;;;;;;10.30;5.50;;;9.50;82.90;;;;;;5072793;28;20063;-71
2021/12/19 02:21:50;;;;;;;11.88;5.80;;;9.50;82.90;;;;;;5072138;28;20025;-71
2021/12/19 02:24:16;;;;;;;11.90;5.07;;;9.50;82.90;;;;;;5072853;28;20049;-71
2021/12/19 02:26:43;;;;;;;9.68;4.60;;;9.50;82.90;;;;;;5072677;28;20029;-71
2021/12/19 02:29:10;;;;;;;10.45;4.88;;;9.50;83.00;;;;;;5072746;28;20052;-71
2021/12/19 02:31:37;;;;;;;10.70;5.13;;;9.50;83.10;;;;;;5073272;28;20029;-71
2021/12/19 02:34:08;;;;;;;8.48;4.05;;;9.50;83.00;;;;;;5072491;28;20036;-70
2021/12/19 02:48:10;;;;;;;5.30;2.20;;;9.50;83.00;;;;;;5076659;28;20464;-71
2021/12/19 02:50:11;;;;;;;7.00;2.10;;;9.50;83.10;;;;;;5077929;28;20028;-71
2021/12/19 02:52:37;;;;;;;5.28;1.90;;;9.50;83.00;;;;;;5059412;28;20123;-71
2021/12/19 02:55:05;;;;;;;6.65;2.05;;;9.50;83.00;;;;;;5075966;28;20115;-70
2021/12/19 02:57:30;;;;;;;5.70;2.10;;;9.50;83.00;;;;;;5076642;28;20039;-71
2021/12/19 02:59:56;;;;;;;6.32;2.20;;;9.50;82.90;;;;;;5077152;28;20024;-71
2021/12/19 03:02:22;;;;;;;6.13;2.50;;;9.50;82.90;;;;;;5059304;28;20036;-71
2021/12/19 03:04:58;;;;;;;6.45;2.50;;;9.50;82.90;;;;;;5076928;28;20036;-71
2021/12/19 03:07:25;;;;;;;5.93;2.33;;;9.50;82.90;;;;;;5075874;28;20104;-71
2021/12/19 03:18:18;;;;;;;7.38;2.55;;;9.50;82.90;;;;;;5043145;28;20124;-71
2021/12/19 03:20:44;;;;;;;8.75;3.28;;;9.50;82.90;;;;;;5055036;28;20596;-71
2021/12/19 03:23:13;;;;;;;7.03;3.30;;;9.50;82.90;;;;;;5031261;28;20029;-70
2021/12/19 03:25:40;;;;;;;8.40;3.30;;;9.50;83.00;;;;;;5042131;28;20525;-70
2021/12/19 03:28:10;;;;;;;7.35;3.03;;;9.50;83.00;;;;;;5032592;28;20450;-71
2021/12/19 03:30:37;;;;;;;7.65;3.28;;;9.50;83.00;;;;;;5052611;28;20040;-70
2021/12/19 03:33:03;;;;;;;8.63;3.45;;;9.50;83.10;;;;;;5054079;28;20115;-70
2021/12/19 03:35:30;;;;;;;8.73;3.22;;;9.50;83.10;;;;;;5054394;28;20044;-70
2021/12/19 03:37:58;;;;;;;7.85;2.95;;;9.50;83.20;;;;;;5054044;28;20126;-70
2021/12/19 03:40:35;;;;;;;7.53;3.03;;;9.60;83.30;;;;;;5055147;28;20029;-70
2021/12/19 03:43:03;;;;;;;7.45;2.88;;;9.50;83.20;;;;;;5047476;28;20047;-71
2021/12/19 03:45:29;;;;;;;7.45;2.88;;;9.60;83.20;;;;;;5021782;28;20397;-70
2021/12/19 03:47:55;;;;;;;8.27;3.42;;;9.60;83.20;;;;;;5046448;28;20072;-70
2021/12/19 03:50:23;;;;;;;7.78;3.30;;;9.50;83.20;;;;;;5045122;28;20042;-71
2021/12/19 03:52:50;;;;;;;7.32;3.00;;;9.60;83.30;;;;;;5074525;28;20028;-71
2021/12/19 03:55:18;;;;;;;7.60;3.03;;;9.50;83.30;;;;;;5074781;28;20029;-71
2021/12/19 03:57:44;;;;;;;7.90;3.13;;;9.60;83.30;;;;;;5075097;28;20032;-70
2021/12/19 04:00:13;;;;;;;6.85;3.30;;;9.50;83.40;;;;;;5058173;28;20032;-70
2021/12/19 04:02:38;;;;;;;7.32;3.20;;;9.60;83.50;;;;;;5074782;28;20059;-70
2021/12/19 04:05:05;;;;;;;7.03;2.83;;;9.50;84.10;;;;;;5074485;28;20056;-70
2021/12/19 04:07:30;;;;;;;8.48;3.30;;;9.60;83.50;;;;;;5074753;28;20024;-70
2021/12/19 04:09:56;;;;;;;7.53;2.90;;;9.60;83.80;;;;;;5076065;28;20344;-71
2021/12/19 04:12:25;;;;;;;8.10;3.55;;;9.50;83.60;;;;;;5075969;28;20071;-70
2021/12/19 04:14:51;;;;;;;8.38;3.55;;;9.60;83.70;;;;;;5053998;28;20029;-70
2021/12/19 04:17:16;;;;;;;8.15;3.65;;;9.50;83.60;;;;;;5069569;28;20455;-70
2021/12/19 04:19:42;;;;;;;9.13;4.07;;;9.60;83.70;;;;;;5074791;28;20039;-71
2021/12/19 04:22:08;;;;;;;8.57;3.95;;;9.60;83.70;;;;;;5076218;28;20349;-71
2021/12/19 04:24:33;;;;;;;9.35;4.18;;;9.60;83.80;;;;;;5074845;28;20032;-71
2021/12/19 04:26:59;;;;;;;11.32;4.40;;;9.60;83.80;;;;;;5075931;28;20067;-71
2021/12/19 04:29:25;;;;;;;7.90;3.58;;;9.60;83.80;;;;;;5074961;28;20041;-70
2021/12/19 04:31:54;;;;;;;8.48;3.72;;;9.60;83.80;;;;;;5057070;28;20024;-71
2021/12/19 04:34:21;;;;;;;8.57;3.97;;;9.60;83.90;;;;;;5054728;28;20040;-71
2021/12/19 04:36:52;;;;;;;9.57;4.60;;;9.60;83.90;;;;;;5074418;28;20376;-70
2021/12/19 04:39:25;;;;;;;9.40;4.10;;;9.60;83.90;;;;;;5074270;28;20039;-70
2021/12/19 04:53:05;;;;;;;8.90;4.32;;;9.60;83.90;;;;;;5074958;28;20126;-71
2021/12/19 04:55:49;;;;;;;8.02;3.58;;;9.60;83.90;;;;;;5069797;28;20170;-71
2021/12/19 05:01:28;;;;;;;8.77;3.90;;;9.60;84.10;;;;;;5074661;28;20058;-71
2021/12/19 05:14:00;;;;;;;8.48;3.90;;;9.60;84.00;;;;;;5070284;28;20099;-71
2021/12/19 05:14:50;;;;;;;11.32;5.15;;;9.60;84.20;;;;;;5074196;28;20032;-71
2021/12/19 05:17:21;;;;;;;9.50;4.72;;;9.70;84.30;;;;;;5074815;28;20058;-71
2021/12/19 05:20:03;;;;;;;10.20;4.60;;;9.70;84.30;;;;;;5073407;28;20107;-71
2021/12/19 05:22:31;;;;;;;10.10;4.90;;;9.70;84.30;;;;;;5073226;28;20437;-70
2021/12/19 05:25:14;;;;;;;11.65;4.65;;;9.70;84.20;;;;;;5073092;28;20033;-70
2021/12/19 05:27:45;;;;;;;9.70;4.95;;;9.70;84.30;;;;;;5073736;28;20457;-70
2021/12/19 05:30:13;;;;;;;9.77;4.60;;;9.70;84.30;;;;;;5073019;28;20040;-70
2021/12/19 05:32:43;;;;;;;10.90;4.70;;;9.70;84.30;;;;;;5073201;28;20031;-70
2021/12/19 05:35:10;;;;;;;10.70;4.80;;;9.70;84.30;;;;;;5072896;28;20417;-70
2021/12/19 05:45:59;;;;;;;11.18;5.07;;;9.70;84.40;;;;;;5055128;28;20047;-70
2021/12/19 05:48:24;;;;;;;11.13;4.93;;;9.70;84.40;;;;;;5072416;28;20041;-70
2021/12/19 05:50:50;;;;;;;10.68;5.40;;;9.70;84.50;;;;;;5065801;28;20033;-70
2021/12/19 05:53:16;;;;;;;9.73;4.65;;;9.70;84.50;;;;;;5069626;28;20324;-70
2021/12/19 05:55:42;;;;;;;10.20;4.85;;;9.70;84.60;;;;;;5071728;28;20433;-69
2021/12/19 05:58:07;;;;;;;8.80;4.35;;;9.80;84.60;;;;;;5071523;28;20090;-71
2021/12/19 06:00:34;;;;;;;10.38;4.88;;;9.80;84.60;;;;;;5071682;28;20032;-71
2021/12/19 06:03:01;;;;;;;8.52;4.20;;;9.80;84.60;;;;;;5055773;28;20389;-71
2021/12/19 06:05:27;;;;;;;8.40;3.55;;;9.80;84.50;;;;;;5072515;28;20110;-71
2021/12/19 06:07:52;;;;;;;7.63;3.28;;;9.80;84.50;;;;;;5072538;28;20485;-71
2021/12/19 06:10:19;;;;;;;7.32;2.40;;;9.80;84.40;;;;;;5071695;28;20109;-71
2021/12/19 06:12:45;;;;;;;6.18;2.35;;;9.80;84.40;;;;;;5072525;28;20033;-70
2021/12/19 06:15:11;;;;;;;5.70;2.28;;;9.80;84.40;;;;;;5072679;28;20487;-71
2021/12/19 06:17:39;;;;;;;4.72;1.30;;;9.80;84.30;;;;;;5071730;28;20040;-71
2021/12/19 06:20:05;;;;;;;3.13;1.23;;;9.80;84.30;;;;;;5059989;28;20044;-71
2021/12/19 06:22:31;;;;;;;5.47;1.75;;;9.80;84.30;;;;;;5075715;28;20399;-71
2021/12/19 06:24:57;;;;;;;4.20;1.55;;;9.80;84.20;;;;;;5075865;28;20081;-71
2021/12/19 06:27:22;;;;;;;2.97;1.35;;;9.80;84.20;;;;;;5075639;28;20054;-71
2021/12/19 06:29:49;;;;;;;2.67;1.30;;;9.80;84.10;;;;;;5076939;28;20361;-71
2021/12/19 06:32:16;;;;;;;4.53;1.73;;;9.80;84.10;;;;;;5078131;28;20032;-70
2021/12/19 06:34:41;;;;;;;5.00;1.20;;;9.80;84.00;;;;;;5077054;28;20039;-71
2021/12/19 06:37:09;;;;;;;2.72;1.20;;;9.80;84.00;;;;;;5076202;28;20028;-71
2021/12/19 06:39:36;;;;;;;3.10;1.15;;;9.80;84.00;;;;;;5076508;28;20035;-71
2021/12/19 06:42:03;;;;;;;3.67;1.23;;;9.80;83.90;;;;;;5077671;28;20035;-71
2021/12/19 06:44:29;;;;;;;3.42;1.40;;;9.70;83.80;;;;;;5076710;28;20346;-71
2021/12/19 06:46:55;;;;;;;3.30;1.30;;;9.70;83.80;;;;;;5077653;28;20036;-71
2021/12/19 06:49:20;;;;;;;2.50;1.10;;;9.80;83.80;;;;;;5076339;28;20365;-70
2021/12/19 06:51:46;;;;;;;2.55;1.00;;;9.70;83.60;;;;;;5076919;28;20034;-71
2021/12/19 06:54:11;;;;;;;2.00;1.00;;;9.70;83.60;;;;;;5075578;28;20043;-70
2021/12/19 06:56:37;;;;;;;1.70;0.75;;;9.70;83.50;;;;;;5076401;28;20062;-70
2021/12/19 06:59:03;;;;;;;3.22;1.10;;;9.70;83.40;;;;;;5059655;28;20416;-70
2021/12/19 07:01:28;;;;;;;0.95;0.50;;;9.60;83.40;;;;;;5075484;28;20028;-71
2021/12/19 07:03:54;;;;;;;1.83;0.88;;;9.60;83.30;;;;;;5075778;28;20369;-72
2021/12/19 07:06:20;;;;;;;2.25;0.90;;;9.60;83.30;;;;;;5075381;28;20037;-72
2021/12/19 07:08:45;;;;;;;2.47;0.90;;;9.60;83.20;;;;;;5076240;28;20376;-72
2021/12/19 07:11:12;;;;;;;1.77;0.73;;;9.60;83.20;;;;;;5075717;28;20046;-71
2021/12/19 07:13:38;;;;;;;1.67;0.85;;;9.60;83.20;;;;;;5075585;28;20032;-71
2021/12/19 07:16:06;;;;;;;1.90;0.90;;;9.60;83.30;;;;;;5074198;28;20046;-71
2021/12/19 07:18:32;;;;;;;1.38;0.60;;;9.60;83.20;;;;;;5074813;28;20036;-71
2021/12/19 07:20:58;;;;;;;2.05;0.98;;;9.60;83.20;;;;;;5072497;28;20043;-73
2021/12/19 07:23:23;;;;;;;1.83;0.85;;;9.60;83.20;;;;;;5074557;28;20029;-73
2021/12/19 07:25:50;;;;;;;0.93;0.73;;;9.60;83.20;;;;;;5054503;28;20028;-74
2021/12/19 07:28:15;;;;;;;2.90;0.95;;;9.60;83.30;;;;;;5074870;28;20024;-74
2021/12/19 07:30:44;;;;;;;1.58;0.70;;;9.60;83.30;;;;;;5075882;28;20128;-70
2021/12/19 07:33:11;;;;;;;2.30;0.90;;;9.60;83.20;;;;;;5074599;28;20040;-74
2021/12/19 07:35:41;;;;;;;3.15;1.10;;;9.60;83.20;;;;;;5074279;28;20055;-73
2021/12/19 07:38:09;;;;;;;2.67;0.90;;;9.60;83.20;;;;;;5075462;28;20108;-73
2021/12/19 07:40:39;;;;;;;2.53;1.02;;;9.60;83.20;;;;;;5075235;28;20090;-73
2021/12/19 07:43:06;;;;;;;2.05;0.82;;;9.60;83.20;;;;;;5074851;28;20054;-74
2021/12/19 07:45:32;;;;;;;2.20;1.02;;;9.60;83.30;;;;;;5075545;28;20032;-74
2021/12/19 07:47:58;;;;;;;2.38;1.10;;;9.50;83.30;;;;;;5075428;28;20048;-73
2021/12/19 07:50:25;;;;;;;1.60;0.90;;;9.60;83.30;;;;;;5075407;28;20456;-73
2021/12/19 07:52:51;;;;;;;2.45;1.02;;;9.60;83.40;;;;;;5075589;28;20056;-74
2021/12/19 07:55:17;;;;;;;2.63;1.13;;;9.50;83.40;;;;;;5076532;28;20060;-74
2021/12/19 07:57:42;;;;;;;2.05;0.80;;;9.50;83.40;;;;;;5075308;28;20033;-74
2021/12/19 08:00:10;;;;;;;2.42;1.10;;;9.50;83.50;;;;;;5076682;28;20043;-74
2021/12/19 08:02:40;;;;;;;1.27;0.80;;;9.50;83.40;;;;;;5075646;28;20433;-74
2021/12/19 08:05:06;;;;;;;2.53;1.00;;;9.50;83.50;;;;;;5075371;28;20032;-74
2021/12/19 08:07:32;;;;;;;2.20;1.00;;;9.50;83.40;;;;;;5076911;28;20035;-74
2021/12/19 08:10:14;;;;;;;3.05;1.00;;;9.50;83.50;;;;;;5058510;28;20028;-74
2021/12/19 08:12:41;;;;;;;1.92;0.95;;;9.50;83.60;;;;;;5075464;28;20111;-74
2021/12/19 08:15:08;;;;;;;2.13;0.95;;;9.50;83.60;;;;;;5076207;28;20029;-74
2021/12/19 08:17:34;;;;;;;2.22;0.90;;;9.60;83.60;;;;;;5076317;28;20032;-74
2021/12/19 08:20:02;;;;;;;2.72;1.10;;;9.60;83.60;;;;;;5075356;28;20033;-74
2021/12/19 08:22:29;;;;;;;2.83;1.23;;;9.60;83.60;;;;;;5076025;28;20025;-74
2021/12/19 08:24:57;;;;;;;2.70;1.17;;;9.60;83.70;;;;;;5075960;28;20028;-74
2021/12/19 08:27:23;;;;;;;2.35;1.02;;;9.60;83.60;;;;;;5058251;28;20064;-74
2021/12/19 08:29:48;;;;;;;3.08;1.02;;;9.60;83.60;;;;;;5075684;28;20054;-74
2021/12/19 08:32:14;;;;;;;3.20;1.00;;;9.60;83.70;;;;;;5058656;28;20428;-74
2021/12/19 08:34:40;;;;;;;2.63;1.10;;;9.60;83.70;;;;;;5076357;28;20036;-73
2021/12/19 08:37:07;;;;;;;2.85;1.08;;;9.60;83.60;;;;;;5075778;28;20043;-73
2021/12/19 08:39:33;;;;;;;2.70;0.95;;;9.60;83.60;;;;;;5074305;28;20067;-73
2021/12/19 08:42:00;;;;;;;1.83;0.80;;;9.60;83.60;;;;;;5074574;28;20425;-73
2021/12/19 08:44:26;;;;;;;2.55;1.00;;;9.70;83.60;;;;;;5075769;28;20024;-73
2021/12/19 08:46:52;;;;;;;2.00;1.00;;;9.70;83.60;;;;;;5074810;28;20373;-73
2021/12/19 08:49:18;;;;;;;2.05;1.02;;;9.70;83.60;;;;;;5075718;28;20043;-73
2021/12/19 08:51:44;;;;;;;1.67;0.80;;;9.70;83.60;;;;;;5057463;28;20028;-73
2021/12/19 08:54:09;;;;;;;2.00;0.98;;;9.60;83.50;;;;;;5074265;28;20473;-73
2021/12/19 08:56:35;;;;;;;1.80;0.82;;;9.60;83.40;;;;;;5075703;28;20059;-73
2021/12/19 08:59:02;;;;;;;1.27;0.60;;;9.70;83.40;;;;;;5074763;28;20342;-73
2021/12/19 09:01:28;;;;;;;1.38;0.80;;;9.70;83.30;;;;;;5057601;28;20032;-73
2021/12/19 09:03:54;;;;;;;2.00;0.82;;;9.70;83.20;;;;;;5075460;28;20400;-73
2021/12/19 09:06:19;;;;;;;1.35;0.60;;;9.70;83.00;;;;;;5075640;28;20107;-73
2021/12/19 09:08:47;;;;;;;2.03;0.98;;;9.70;82.90;;;;;;5074103;28;20075;-73
2021/12/19 09:11:12;;;;;;;1.08;0.68;;;9.80;83.50;;;;;;5075046;28;20075;-73
2021/12/19 09:13:38;;;;;;;2.28;1.05;;;9.80;82.80;;;;;;5074336;28;20060;-73
2021/12/19 09:16:04;;;;;;;3.25;1.25;;;9.80;82.80;;;;;;5074218;28;20056;-73
2021/12/19 09:18:30;;;;;;;2.03;1.10;;;9.80;82.80;;;;;;5074382;28;20031;-73
2021/12/19 09:20:56;;;;;;;2.95;1.20;;;9.70;82.80;;;;;;5073909;28;20032;-74
2021/12/19 09:23:22;;;;;;;3.50;1.40;;;9.70;82.80;;;;;;5056844;28;20029;-73
2021/12/19 09:25:48;;;;;;;1.77;1.15;;;9.70;82.80;;;;;;5075217;28;20099;-73
2021/12/19 09:28:15;;;;;;;4.13;1.40;;;9.70;82.80;;;;;;5057441;28;20071;-73
2021/12/19 09:30:44;;;;;;;3.38;1.27;;;9.70;82.80;;;;;;5056681;28;20044;-73
2021/12/19 09:33:09;;;;;;;4.60;1.50;;;9.70;82.70;;;;;;5074986;28;20029;-73
2021/12/19 09:35:36;;;;;;;3.22;1.50;;;9.70;82.80;;;;;;5075020;28;20044;-73
2021/12/19 09:38:04;;;;;;;5.95;1.40;;;9.70;82.80;;;;;;5073364;28;20024;-73
2021/12/19 09:40:35;;;;;;;3.97;1.73;;;9.80;82.80;;;;;;5074806;28;20028;-73
2021/12/19 09:43:09;;;;;;;3.17;1.38;;;9.80;82.70;;;;;;5074994;28;20111;-73
2021/12/19 09:45:36;;;;;;;3.85;1.67;;;9.80;82.70;;;;;;5074890;28;20035;-73
2021/12/19 09:48:02;;;;;;;4.72;1.48;;;9.70;82.70;;;;;;5057372;28;20349;-73
2021/12/19 09:50:29;;;;;;;5.25;1.80;;;9.70;82.70;;;;;;5057075;28;20449;-73
2021/12/19 09:52:55;;;;;;;4.60;1.80;;;9.80;82.80;;;;;;5074552;28;20107;-73
2021/12/19 09:55:22;;;;;;;4.18;1.50;;;9.80;82.80;;;;;;5075166;28;20085;-73
2021/12/19 09:57:53;;;;;;;5.32;1.77;;;9.80;82.80;;;;;;5075187;28;20047;-73
2021/12/19 10:00:20;;;;;;;4.95;2.13;;;9.80;82.70;;;;;;5075301;28;20035;-73
2021/12/19 10:02:46;;;;;;;5.22;2.00;;;9.80;82.70;;;;;;5057370;28;20033;-73
2021/12/19 10:05:26;;;;;;;5.80;1.88;;;9.80;82.70;;;;;;5057541;28;20131;-73
2021/12/19 10:07:54;;;;;;;5.60;1.95;;;9.80;82.70;;;;;;5074832;28;20036;-73
2021/12/19 10:10:43;;;;;;;5.55;2.30;;;9.80;82.70;;;;;;5073729;28;20078;-73
2021/12/19 10:13:09;;;;;;;6.75;2.15;;;9.80;82.70;;;;;;5057299;28;20033;-73
2021/12/19 10:15:38;;;;;;;7.20;3.03;;;9.80;82.70;;;;;;5073755;28;20054;-73
2021/12/19 10:18:12;;;;;;;6.60;2.22;;;9.80;82.60;;;;;;5073992;28;20031;-73
2021/12/19 10:20:50;;;;;;;7.97;2.83;;;9.80;82.60;;;;;;5073939;28;20064;-73
2021/12/19 10:23:17;;;;;;;5.93;2.70;;;9.80;82.50;;;;;;5074441;28;20029;-73
2021/12/19 10:25:44;;;;;;;6.57;2.90;;;9.80;82.50;;;;;;5075406;28;20105;-73
2021/12/19 10:28:10;;;;;;;9.57;2.92;;;9.80;82.60;;;;;;5073766;28;20060;-73
2021/12/19 10:30:39;;;;;;;7.55;2.58;;;9.80;82.60;;;;;;5073306;28;20112;-73
2021/12/19 10:33:04;;;;;;;6.07;2.33;;;9.80;82.50;;;;;;5074344;28;20036;-73
2021/12/19 10:35:41;;;;;;;6.05;2.30;;;9.80;82.40;;;;;;5073060;28;20150;-73
2021/12/19 10:38:22;;;;;;;7.20;2.83;;;9.90;82.40;;;;;;5073726;28;20445;-73
2021/12/19 10:40:55;;;;;;;9.00;2.90;;;9.90;82.30;;;;;;5074529;28;20039;-73
2021/12/19 10:43:23;;;;;;;6.50;2.40;;;9.90;82.40;;;;;;5073330;28;20025;-73
2021/12/19 10:45:52;;;;;;;6.35;2.58;;;9.90;82.40;;;;;;5074530;28;20033;-73
2021/12/19 10:48:25;;;;;;;7.85;2.70;;;9.90;82.40;;;;;;5074140;28;20093;-73
2021/12/19 10:51:12;;;;;;;7.60;2.55;;;9.90;82.40;;;;;;5073414;28;20024;-73
2021/12/19 10:53:52;;;;;;;7.00;2.70;;;9.90;82.40;;;;;;5073159;28;20033;-73
2021/12/19 10:56:22;;;;;;;8.20;2.67;;;9.90;82.40;;;;;;5056771;28;20143;-73
2021/12/19 10:59:01;;;;;;;8.25;3.10;;;9.90;82.40;;;;;;5055814;28;20040;-73
2021/12/19 11:01:38;;;;;;;7.70;2.88;;;9.90;82.40;;;;;;5072973;28;20124;-73
2021/12/19 11:04:09;;;;;;;7.93;2.92;;;9.90;82.40;;;;;;5075586;28;20035;-73
2021/12/19 11:06:37;;;;;;;7.47;2.38;;;9.90;82.50;;;;;;5077119;28;20029;-73
2021/12/19 11:09:13;;;;;;;7.05;2.47;;;9.80;82.40;;;;;;5076182;28;20024;-73
2021/12/19 11:11:54;;;;;;;6.72;2.63;;;9.80;82.50;;;;;;5076738;28;20032;-73
2021/12/19 11:14:48;;;;;;;7.45;2.60;;;9.80;82.50;;;;;;5076805;28;20040;-73
2021/12/19 11:17:22;;;;;;;7.95;2.75;;;9.90;82.60;;;;;;5075748;28;20354;-73
2021/12/19 11:19:54;;;;;;;8.23;2.95;;;9.90;82.70;;;;;;5077236;28;20036;-73
2021/12/19 11:22:26;;;;;;;9.90;2.70;;;9.90;82.60;;;;;;5059678;28;20038;-73
2021/12/19 11:25:04;;;;;;;9.05;3.25;;;9.90;82.50;;;;;;5076408;28;20039;-73
2021/12/19 11:27:30;;;;;;;7.03;2.70;;;9.80;82.50;;;;;;5076528;28;20078;-73
2021/12/19 11:29:57;;;;;;;6.80;2.40;;;9.80;82.50;;;;;;5059304;28;20047;-73
2021/12/19 11:32:49;;;;;;;8.98;3.15;;;9.80;83.20;;;;;;5077451;28;20040;-73
2021/12/19 11:35:21;;;;;;;9.48;3.33;;;9.80;82.70;;;;;;5076979;28;20449;-73
2021/12/19 11:37:59;;;;;;;7.97;3.33;;;9.90;82.70;;;;;;5077570;28;20028;-73
2021/12/19 11:40:26;;;;;;;8.35;2.50;;;9.80;82.60;;;;;;5076139;28;20025;-73
2021/12/19 11:43:04;;;;;;;8.18;3.10;;;9.90;82.60;;;;;;5077080;28;20123;-73
2021/12/19 11:48:23;;;;;;;7.97;2.63;;;9.80;82.50;;;;;;5075733;28;20036;-73
2021/12/19 11:50:48;;;;;;;11.07;4.03;;;9.90;82.50;;;;;;5075990;28;20028;-74
2021/12/19 11:53:17;;;;;;;9.25;2.83;;;9.90;82.50;;;;;;5076484;28;20044;-73
2021/12/19 11:55:46;;;;;;;9.93;3.25;;;9.90;82.50;;;;;;5074622;28;20032;-73
2021/12/19 11:58:12;;;;;;;9.95;3.55;;;9.90;82.50;;;;;;5078071;28;20061;-73
2021/12/19 12:00:47;;;;;;;9.85;3.55;;;9.90;82.50;;;;;;5075929;28;20444;-73
2021/12/19 12:03:12;;;;;;;7.60;3.00;;;9.90;82.50;;;;;;5059516;28;20040;-73
2021/12/19 12:05:43;;;;;;;8.10;2.22;;;9.90;82.40;;;;;;5075195;28;20037;-73
2021/12/19 12:08:09;;;;;;;7.53;2.50;;;9.90;82.40;;;;;;5075891;28;20120;-73
2021/12/19 12:10:57;;;;;;;7.22;2.92;;;9.90;82.30;;;;;;5076453;28;20108;-73
2021/12/19 12:13:34;;;;;;;8.68;2.22;;;9.90;82.30;;;;;;5076620;28;20072;-73
2021/12/19 12:16:27;;;;;;;7.03;2.30;;;9.90;82.30;;;;;;5057752;28;20032;-73
2021/12/19 12:19:02;;;;;;;6.60;2.97;;;9.90;82.30;;;;;;5075242;28;20044;-73
2021/12/19 12:24:12;;;;;;;4.60;1.95;;;9.90;82.30;;;;;;5075395;28;20024;-73
2021/12/19 12:27:00;;;;;;;6.50;2.45;;;9.90;82.30;;;;;;5075893;28;20041;-73
2021/12/19 12:29:26;;;;;;;6.13;2.30;;;9.90;82.20;;;;;;5076237;28;20056;-73
2021/12/19 12:31:53;;;;;;;6.80;2.13;;;9.90;82.10;;;;;;5073036;28;20047;-73
2021/12/19 12:34:19;;;;;;;7.15;2.65;;;9.90;82.20;;;;;;5071831;28;20040;-73
2021/12/19 12:36:45;;;;;;;9.38;2.70;;;9.90;82.20;;;;;;5055940;28;20334;-73
2021/12/19 12:39:20;;;;;;;6.70;2.53;;;9.80;82.20;;;;;;5066734;28;20456;-73
2021/12/19 12:41:57;;;;;;;9.02;2.83;;;9.80;82.30;;;;;;5075153;28;20048;-73
2021/12/19 12:44:23;;;;;;;7.70;2.60;;;9.80;82.30;;;;;;5076270;28;20060;-73
2021/12/19 12:46:50;;;;;;;8.15;2.63;;;9.80;82.40;;;;;;5057644;28;20393;-73
2021/12/19 12:49:17;;;;;;;7.97;3.28;;;9.90;82.40;;;;;;5076161;28;20082;-73
2021/12/19 12:51:56;;;;;;;7.90;2.60;;;9.90;82.40;;;;;;5076219;28;20090;-73
2021/12/19 12:54:26;;;;;;;6.18;2.70;;;9.90;82.40;;;;;;5075163;28;20044;-73
2021/12/19 12:56:54;;;;;;;6.97;2.75;;;9.90;82.40;;;;;;5075867;28;20047;-73
2021/12/19 12:59:23;;;;;;;7.32;2.83;;;9.80;82.40;;;;;;5058133;28;20082;-74
2021/12/19 13:01:55;;;;;;;7.78;2.60;;;9.90;82.40;;;;;;5075001;28;20036;-74
2021/12/19 13:04:24;;;;;;;8.25;2.90;;;9.90;82.50;;;;;;5074605;28;20025;-73
2021/12/19 13:06:59;;;;;;;12.27;3.17;;;9.90;82.40;;;;;;5058151;28;20372;-73
2021/12/19 13:09:31;;;;;;;8.95;2.85;;;9.90;82.40;;;;;;5058011;28;20033;-73
2021/12/19 13:12:08;;;;;;;10.93;2.90;;;9.90;82.50;;;;;;5074214;28;20036;-73
2021/12/19 13:14:38;;;;;;;6.55;2.58;;;9.90;82.50;;;;;;5057665;28;20028;-73
2021/12/19 13:17:07;;;;;;;6.05;2.50;;;9.90;82.50;;;;;;5074677;28;20370;-74
2021/12/19 13:19:35;;;;;;;6.38;2.75;;;9.90;82.60;;;;;;5056725;28;20078;-73
2021/12/19 13:22:01;;;;;;;7.55;2.90;;;9.90;82.60;;;;;;5073014;28;20115;-75
2021/12/19 13:24:26;;;;;;;8.13;3.00;;;9.90;82.60;;;;;;5073125;28;20020;-73
2021/12/19 13:27:03;;;;;;;6.35;2.80;;;9.90;82.70;;;;;;5075306;28;20046;-73
2021/12/19 13:29:29;;;;;;;8.73;2.83;;;9.90;82.60;;;;;;5073964;28;20060;-72
2021/12/19 13:32:15;;;;;;;8.73;2.85;;;9.90;82.60;;;;;;5073912;28;20037;-74
2021/12/19 13:34:40;;;;;;;5.05;2.03;;;9.90;82.60;;;;;;5066798;28;20119;-74
2021/12/19 13:37:06;;;;;;;7.00;1.85;;;9.90;82.60;;;;;;5075029;28;20059;-74
2021/12/19 13:39:33;;;;;;;5.55;2.30;;;9.90;82.60;;;;;;5073616;28;20039;-74
2021/12/19 13:42:09;;;;;;;6.35;2.25;;;9.90;82.60;;;;;;5075134;28;20047;-74
2021/12/19 13:44:36;;;;;;;8.15;2.78;;;10.00;82.60;;;;;;5053883;28;20374;-74
2021/12/19 13:47:23;;;;;;;7.95;2.85;;;9.90;82.50;;;;;;5073072;28;20353;-74
2021/12/19 13:49:49;;;;;;;6.15;2.17;;;10.00;82.50;;;;;;5062979;28;20024;-74
2021/12/19 13:52:15;;;;;;;7.03;2.15;;;10.00;82.40;;;;;;5070933;28;20032;-74
2021/12/19 13:54:41;;;;;;;5.68;2.20;;;10.00;82.40;;;;;;5074445;28;20021;-74
2021/12/19 13:57:22;;;;;;;4.25;1.65;;;10.00;82.40;;;;;;5058213;28;20044;-74
2021/12/19 13:59:49;;;;;;;4.13;1.70;;;10.00;82.40;;;;;;5073672;28;20028;-74
2021/12/19 14:02:15;;;;;;;4.70;2.05;;;10.00;82.50;;;;;;5074066;28;20032;-74